Time;durP1;ratioP1;P1;durP2;ratioP2;P2;SDS_P1;SDS_P2;PMS_P1;PMS_P2;Temp;Humidity;BMP_temperature;BMP_pressure;BME280_temperature;BME280_humidity;BME280_pressure;Samples;Min_cycle;Max_cycle;Signal;HPM_P1;HPM_P2
2022/08/24 06:20:30;;;;;;;99.68;38.63;;;;;;;23.87;54.21;100939.16;4864095;29;20060;-92
2022/08/24 06:22:57;;;;;;;56.65;24.52;;;;;;;23.38;53.38;100855.84;4843782;29;20053;-93
2022/08/24 06:29:04;;;;;;;56.03;24.30;;;;;;;23.90;51.99;100905.72;4880149;29;20069;-94
2022/08/24 06:32:23;;;;;;;81.68;25.70;;;;;;;24.27;52.16;100952.88;4852708;29;20105;-92
2022/08/24 06:34:49;;;;;;;76.07;34.20;;;;;;;24.06;52.23;100900.09;4848048;29;20065;-92
2022/08/24 06:38:05;;;;;;;58.13;23.63;;;;;;;24.46;52.38;100949.28;4858225;29;20080;-93
2022/08/24 06:40:48;;;;;;;57.17;22.80;;;;;;;24.52;51.38;100950.63;4848329;29;20049;-91
2022/08/24 06:43:16;;;;;;;78.53;25.90;;;;;;;24.31;51.85;100909.03;4841299;29;20052;-95
2022/08/24 06:56:17;;;;;;;46.88;14.90;;;;;;;24.75;47.55;100897.53;4886511;29;20052;-90
2022/08/24 06:58:44;;;;;;;64.55;15.70;;;;;;;25.17;48.88;100943.50;4849978;29;20037;-91
2022/08/24 07:01:19;;;;;;;42.70;17.27;;;;;;;25.20;46.84;100931.53;4865831;29;20048;-90
2022/08/24 07:03:46;;;;;;;67.97;13.93;;;;;;;25.40;46.21;100946.31;4866974;29;20131;-89
2022/08/24 07:06:22;;;;;;;40.47;16.30;;;;;;;25.43;46.03;100940.75;4865340;29;20140;-87
2022/08/24 07:08:52;;;;;;;45.67;11.70;;;;;;;25.43;45.04;100923.97;4830271;29;20101;-89
2022/08/24 07:11:20;;;;;;;31.88;13.32;;;;;;;25.55;43.95;100931.34;4848570;29;20054;-88
2022/08/24 07:13:56;;;;;;;29.65;9.63;;;;;;;25.41;43.78;100901.13;4872931;29;20065;-89
2022/08/24 07:16:25;;;;;;;29.83;10.68;;;;;;;25.62;44.02;100927.84;4850662;29;20077;-89
2022/08/24 07:18:56;;;;;;;37.90;18.77;;;;;;;25.75;44.58;100941.25;4863746;29;20049;-87
2022/08/24 07:21:24;;;;;;;56.60;20.90;;;;;;;25.66;43.21;100909.09;4867090;29;20081;-87
2022/08/24 07:23:56;;;;;;;32.67;15.48;;;;;;;25.78;44.13;100920.88;4846303;29;20065;-88
2022/08/24 07:26:26;;;;;;;42.70;16.50;;;;;;;25.88;42.38;100924.25;4858399;29;20515;-87
2022/08/24 07:29:00;;;;;;;30.70;13.35;;;;;;;26.01;42.83;100937.66;4843319;29;20076;-92
2022/08/24 07:31:29;;;;;;;42.67;12.27;;;;;;;25.88;42.29;100902.66;4830349;29;20094;-89
2022/08/24 07:34:06;;;;;;;40.05;9.55;;;;;;;26.11;41.47;100912.97;4859879;29;20037;-89
2022/08/24 07:36:34;;;;;;;58.05;15.48;;;;;;;26.07;42.46;100903.72;4849087;29;20109;-92
2022/08/24 07:39:02;;;;;;;25.50;11.02;;;;;;;26.30;40.56;100918.44;4846673;29;20045;-92
2022/08/24 07:41:30;;;;;;;28.52;11.48;;;;;;;26.06;39.22;100872.09;4853885;29;20037;-91
2022/08/24 07:43:57;;;;;;;24.08;10.55;;;;;;;26.17;39.67;100877.81;4838296;29;20041;-93
2022/08/24 07:46:23;;;;;;;;;;;;;;;26.57;40.58;100932.41;4850140;29;20052;-90
2022/08/24 07:48:52;;;;;;;39.75;15.77;;;;;;;26.27;41.10;100868.72;4851447;29;19966;-94
2022/08/24 07:51:19;;;;;;;39.08;11.38;;;;;;;26.43;40.12;100886.16;4843453;29;20507;-94
2022/08/24 07:53:48;;;;;;;48.75;22.13;;;;;;;26.59;40.74;100893.53;4866420;29;20053;-91
2022/08/24 07:56:14;;;;;;;23.02;11.63;;;;;;;26.68;38.93;100891.25;4874610;29;20109;-90
2022/08/24 07:58:49;;;;;;;26.63;11.70;;;;;;;26.91;39.45;100921.94;4885652;29;20049;-93
2022/08/24 08:01:16;;;;;;;17.85;7.93;;;;;;;26.94;39.54;100921.19;4839518;29;20053;-93
2022/08/24 08:03:49;;;;;;;26.80;10.73;;;;;;;26.71;39.34;100863.22;4848296;29;20041;-90
2022/08/24 08:06:19;;;;;;;27.50;11.32;;;;;;;26.86;37.30;100886.63;4831668;29;20041;-93
2022/08/24 08:08:49;;;;;;;16.70;7.10;;;;;;;27.00;37.46;100894.38;4862804;29;20041;-88
2022/08/24 08:11:15;;;;;;;25.65;12.00;;;;;;;26.91;36.56;100875.03;4835933;29;20530;-90
2022/08/24 08:13:45;;;;;;;33.28;11.10;;;;;;;27.06;35.85;100883.63;4833827;29;20049;-92
2022/08/24 08:16:26;;;;;;;32.42;12.27;;;;;;;26.87;35.95;100834.91;4852036;29;20077;-92
2022/08/24 08:18:52;;;;;;;13.40;6.45;;;;;;;27.34;32.72;100883.06;4825503;29;20054;-89
2022/08/24 08:24:17;;;;;;;18.98;8.00;;;;;;;27.66;33.23;100910.59;4861073;29;20133;-90
2022/08/24 08:27:11;;;;;;;35.47;11.55;;;;;;;27.69;33.95;100898.56;4857973;29;20064;-89
2022/08/24 08:29:39;;;;;;;29.38;14.45;;;;;;;27.53;34.40;100870.78;4847420;29;20448;-92
2022/08/24 08:32:32;;;;;;;41.33;17.30;;;;;;;27.77;32.82;100903.88;4832601;29;20046;-90
2022/08/24 08:35:02;;;;;;;42.47;15.55;;;;;;;27.67;34.41;100882.09;4844491;29;20066;-93
2022/08/24 08:37:33;;;;;;;38.60;12.70;;;;;;;27.73;33.36;100877.72;4861944;29;20054;-90
2022/08/24 08:40:05;;;;;;;;;;;;;;;27.97;31.59;100900.78;4834907;29;20041;-93
2022/08/24 08:47:16;;;;;;;28.48;9.27;;;;;;;27.78;30.44;100852.09;4886051;29;20061;-94
2022/08/24 08:50:52;;;;;;;18.30;6.72;;;;;;;28.13;31.03;100892.81;4862916;29;20069;-95
2022/08/24 08:53:59;;;;;;;53.35;7.47;;;;;;;28.20;29.48;100890.03;4876925;29;20060;-94
2022/08/24 09:09:28;;;;;;;46.90;7.93;;;;;;;28.57;29.92;100897.41;4881418;23;20158;-96
2022/08/24 09:15:30;;;;;;;35.17;12.40;;;;;;;28.64;31.89;100888.19;4930386;29;20143;-91
2022/08/24 09:19:00;;;;;;;34.60;10.73;;;;;;;28.71;29.62;100880.59;4906024;23;20064;-93
2022/08/24 09:29:59;;;;;;;29.92;8.73;;;;;;;28.86;29.25;100874.97;4826041;29;20057;-90
2022/08/24 09:32:54;;;;;;;19.00;5.78;;;;;;;28.90;26.82;100865.31;4793305;29;20055;-91
2022/08/24 09:36:02;;;;;;;28.50;8.80;;;;;;;29.02;26.15;100875.44;4822082;29;20050;-91
2022/08/24 09:39:15;;;;;;;19.95;5.63;;;;;;;29.07;28.29;100866.56;4810126;29;20061;-90
2022/08/24 09:42:01;;;;;;;26.17;4.93;;;;;;;29.12;27.50;100865.38;4808880;29;20048;-91
2022/08/24 09:45:03;;;;;;;22.13;8.18;;;;;;;28.99;26.66;100837.56;4841365;29;20046;-93
2022/08/24 09:47:32;;;;;;;14.13;4.63;;;;;;;29.24;26.93;100870.63;4827753;29;20136;-89
2022/08/24 09:50:43;;;;;;;20.55;5.82;;;;;;;29.32;26.47;100858.13;4811895;29;20069;-89
2022/08/24 09:55:40;;;;;;;19.02;4.30;;;;;;;29.39;26.13;100860.13;4827395;29;20049;-89
2022/08/24 10:02:07;;;;;;;22.17;4.43;;;;;;;29.47;25.74;100858.88;4825889;29;20047;-93
2022/08/24 10:05:12;;;;;;;20.90;5.55;;;;;;;29.52;26.19;100866.16;4821038;29;20420;-89
2022/08/24 10:07:54;;;;;;;20.77;5.30;;;;;;;29.49;28.19;100851.66;4828646;29;20045;-91
2022/08/24 10:10:57;;;;;;;32.00;6.28;;;;;;;29.65;27.89;100859.72;4827918;29;20123;-90
2022/08/24 10:13:42;;;;;;;14.05;5.22;;;;;;;29.70;27.78;100864.13;4857646;24;20049;-90
2022/08/24 10:23:31;;;;;;;16.23;5.47;;;;;;;29.89;23.83;100860.03;4911278;23;20052;-96
2022/08/24 10:27:10;;;;;;;22.50;5.00;;;;;;;29.94;25.83;100848.34;4857533;29;20049;-95
2022/08/24 10:46:58;;;;;;;15.73;5.15;;;;;;;30.36;26.65;100846.56;4882566;29;20057;-89
2022/08/24 10:49:33;;;;;;;19.92;5.00;;;;;;;30.39;24.64;100845.75;4896093;29;20045;-95
2022/08/24 10:52:16;;;;;;;8.57;4.50;;;;;;;30.45;24.17;100843.28;4873477;29;20519;-93
2022/08/24 10:54:44;;;;;;;21.27;4.70;;;;;;;30.01;23.68;100775.00;4893242;29;20056;-96
2022/08/24 10:57:29;;;;;;;13.27;4.85;;;;;;;30.49;24.37;100833.56;4897113;29;20519;-96
2022/08/24 11:00:26;;;;;;;10.63;4.23;;;;;;;30.52;24.04;100829.94;4863841;29;20080;-94
2022/08/24 11:03:07;;;;;;;12.73;4.07;;;;;;;30.38;24.13;100804.63;4797893;29;20435;-90
2022/08/24 11:05:55;;;;;;;18.30;4.95;;;;;;;30.63;25.32;100821.41;4792831;29;20054;-90
2022/08/24 11:08:44;;;;;;;16.70;5.13;;;;;;;30.50;25.61;100811.81;4792073;29;20054;-90
2022/08/24 11:11:20;;;;;;;24.55;4.38;;;;;;;30.71;23.04;100834.25;4782980;29;20062;-89
2022/08/24 11:17:26;;;;;;;16.92;3.95;;;;;;;30.69;23.88;100790.69;4862185;29;20075;-91
2022/08/24 11:19:53;;;;;;;12.07;4.20;;;;;;;30.64;23.68;100783.50;4886172;29;20048;-88
2022/08/24 11:22:36;;;;;;;26.02;4.03;;;;;;;30.93;21.94;100826.47;4912653;29;20088;-88
2022/08/24 11:25:41;;;;;;;18.88;3.88;;;;;;;30.95;23.80;100811.91;4881803;29;20049;-87
2022/08/24 11:28:20;;;;;;;12.43;4.32;;;;;;;31.06;24.58;100816.25;4867819;29;20049;-86
2022/08/24 11:30:48;;;;;;;17.65;3.85;;;;;;;31.06;23.98;100801.31;4918690;29;20055;-86
2022/08/24 11:33:32;;;;;;;9.75;3.45;;;;;;;31.08;22.42;100799.66;4915378;29;20614;-89
2022/08/24 11:36:01;;;;;;;18.93;3.33;;;;;;;30.98;20.84;100780.81;4865894;29;20048;-92
2022/08/24 11:38:33;;;;;;;80.93;4.97;;;;;;;31.15;21.75;100798.81;4913135;29;20506;-93
2022/08/24 11:41:15;;;;;;;21.13;4.35;;;;;;;31.28;22.29;100807.56;4900101;29;20048;-87
2022/08/24 11:44:11;;;;;;;12.63;3.20;;;;;;;31.25;20.80;100806.38;4867802;29;20048;-90
2022/08/24 11:47:02;;;;;;;11.10;3.28;;;;;;;31.26;21.15;100787.38;4866257;29;20044;-89
2022/08/24 11:49:37;;;;;;;15.88;3.67;;;;;;;31.47;21.95;100800.53;4887140;29;20061;-87
2022/08/24 11:52:40;;;;;;;12.07;3.57;;;;;;;31.51;22.15;100807.75;4894240;29;20122;-87
2022/08/24 11:55:18;;;;;;;25.73;4.65;;;;;;;31.52;21.62;100811.38;4891726;29;20060;-87
2022/08/24 11:58:13;;;;;;;10.57;3.53;;;;;;;31.51;22.02;100795.63;4868368;29;20049;-88
2022/08/24 12:00:56;;;;;;;25.77;4.22;;;;;;;31.30;21.72;100766.38;4885878;29;20052;-93
2022/08/24 12:04:00;;;;;;;28.77;4.22;;;;;;;31.30;22.59;100748.63;4886678;29;20044;-87
2022/08/24 12:06:49;;;;;;;15.30;4.25;;;;;;;31.64;21.42;100790.25;4878423;29;20464;-87
2022/08/24 12:09:22;;;;;;;16.63;3.83;;;;;;;31.68;21.90;100791.00;4882354;29;20048;-88
2022/08/24 12:12:02;;;;;;;14.57;3.97;;;;;;;31.73;22.25;100790.56;4896116;29;20087;-88
2022/08/24 12:15:09;;;;;;;5.90;3.30;;;;;;;31.71;22.69;100774.00;4882774;29;20055;-88
2022/08/24 12:17:44;;;;;;;9.93;3.80;;;;;;;31.80;21.24;100781.97;4875371;29;20052;-87
2022/08/24 12:20:51;;;;;;;15.80;4.40;;;;;;;31.86;23.47;100782.31;4884548;29;20478;-87
2022/08/24 12:23:28;;;;;;;14.82;3.85;;;;;;;31.81;21.84;100772.25;4879370;29;20411;-88
2022/08/24 12:26:12;;;;;;;13.50;4.85;;;;;;;31.87;22.93;100773.41;4852510;29;20053;-91
2022/08/24 12:28:52;;;;;;;20.13;4.00;;;;;;;31.80;23.38;100765.00;4903036;29;20052;-93
2022/08/24 12:31:58;;;;;;;20.00;3.88;;;;;;;31.93;23.29;100770.94;4855738;29;20426;-91
2022/08/24 12:34:53;;;;;;;12.15;4.47;;;;;;;31.90;22.42;100764.09;4860805;29;20182;-90
2022/08/24 12:37:32;;;;;;;115.68;6.53;;;;;;;31.90;21.80;100746.31;4847512;29;20041;-89
2022/08/24 12:40:21;;;;;;;14.50;3.47;;;;;;;32.07;21.74;100765.06;4867438;29;20053;-90
2022/08/24 12:43:08;;;;;;;31.83;4.05;;;;;;;32.11;21.24;100771.47;4859562;29;20443;-89
2022/08/24 12:45:44;;;;;;;20.08;3.97;;;;;;;31.98;20.82;100734.47;4847401;29;20534;-89
2022/08/24 12:48:13;;;;;;;;;;;;;;;32.15;23.76;100751.63;4873573;29;20131;-88
2022/08/24 12:51:39;;;;;;;20.27;4.97;;;;;;;31.96;21.94;100753.91;4906289;29;20070;-92
2022/08/24 12:55:02;;;;;;;20.67;4.50;;;;;;;31.75;22.89;100763.44;4895532;29;20072;-91
2022/08/24 12:57:54;;;;;;;48.15;4.70;;;;;;;31.10;23.03;100670.13;4853285;29;20045;-92
2022/08/24 13:00:42;;;;;;;38.85;4.53;;;;;;;31.05;23.45;100687.53;4837273;29;20562;-92
2022/08/24 13:03:34;;;;;;;25.95;3.70;;;;;;;31.35;22.35;100751.00;4824177;29;20049;-93
2022/08/24 13:06:37;;;;;;;18.80;4.35;;;;;;;30.90;24.25;100711.50;4832470;29;20070;-92
2022/08/24 13:09:16;;;;;;;20.73;4.28;;;;;;;31.07;23.41;100755.72;4845045;29;20085;-90
2022/08/24 13:11:43;;;;;;;29.85;4.78;;;;;;;30.91;24.44;100741.34;4862870;29;20055;-91
2022/08/24 13:14:19;;;;;;;51.28;4.20;;;;;;;30.90;22.85;100742.56;4832263;29;20496;-90
2022/08/24 13:16:46;;;;;;;;;;;;;;;30.89;23.84;100743.75;4846910;29;20052;-90
2022/08/24 13:22:47;;;;;;;33.38;8.05;;;;;;;30.82;25.82;100724.88;4807295;29;20094;-90
2022/08/24 13:25:24;;;;;;;;;;;;;;;30.88;26.45;100736.53;4812562;29;20059;-90
2022/08/24 13:28:03;;;;;;;22.67;4.90;;;;;;;30.93;23.43;100732.44;4780132;29;19925;-91
2022/08/24 13:30:57;;;;;;;9.57;3.60;;;;;;;31.03;24.49;100738.00;4817643;29;20054;-91
2022/08/24 13:36:50;;;;;;;27.25;4.88;;;;;;;31.11;25.65;100733.88;4799734;29;20050;-91
2022/08/24 13:39:40;;;;;;;47.97;5.25;;;;;;;31.16;23.36;100731.78;4780250;29;20047;-92
2022/08/24 13:42:38;;;;;;;24.55;4.70;;;;;;;31.18;24.53;100720.88;4794540;29;20055;-89
2022/08/24 13:45:25;;;;;;;40.03;5.13;;;;;;;31.26;25.03;100730.88;4801585;29;20050;-91
2022/08/24 13:49:01;;;;;;;40.00;4.15;;;;;;;31.37;25.96;100725.94;4813631;29;20509;-90
2022/08/24 13:52:11;;;;;;;7.97;3.17;;;;;;;31.45;23.51;100724.63;4810207;29;20066;-91
2022/08/24 13:55:37;;;;;;;15.55;3.83;;;;;;;31.49;21.77;100719.75;4760862;30;20143;-94
2022/08/24 13:58:22;;;;;;;48.33;5.07;;;;;;;30.88;22.83;100615.09;4772349;30;20055;-92
2022/08/24 14:01:18;;;;;;;25.50;4.13;;;;;;;31.52;22.77;100718.91;4837145;29;20048;-91
2022/08/24 14:04:06;;;;;;;15.00;4.20;;;;;;;31.50;22.70;100714.91;4763177;29;20587;-92
2022/08/24 14:07:02;;;;;;;14.43;3.83;;;;;;;31.38;24.94;100696.47;4792419;29;20059;-90
2022/08/24 14:09:47;;;;;;;12.20;3.67;;;;;;;31.47;24.02;100715.75;4773044;29;20078;-89
2022/08/24 14:12:48;;;;;;;36.17;4.65;;;;;;;31.29;23.79;100713.91;4791486;29;20079;-89
2022/08/24 14:15:33;;;;;;;17.98;4.72;;;;;;;31.13;22.28;100711.66;4787695;29;20055;-90
2022/08/24 14:18:02;;;;;;;;;;;;;;;31.03;24.12;100712.56;4793219;29;20043;-92
2022/08/24 14:21:00;;;;;;;45.65;5.88;;;;;;;30.69;24.28;100667.28;4768131;29;19925;-90
2022/08/24 14:23:50;;;;;;;12.35;4.05;;;;;;;30.99;24.75;100714.63;4786287;30;20569;-92
2022/08/24 14:26:39;;;;;;;21.02;4.22;;;;;;;31.00;25.06;100709.78;4774323;30;20137;-94
2022/08/24 14:29:30;;;;;;;23.90;5.22;;;;;;;30.95;25.02;100711.03;4790295;29;20068;-87
2022/08/24 14:32:01;;;;;;;30.30;4.35;;;;;;;30.76;25.90;100708.75;4786588;30;20069;-87
2022/08/24 14:34:54;;;;;;;20.58;4.30;;;;;;;30.49;26.54;100711.44;4773199;30;20517;-86
2022/08/24 14:37:41;;;;;;;24.42;4.10;;;;;;;30.27;26.60;100702.34;4783164;29;20176;-84
2022/08/24 14:40:28;;;;;;;37.38;4.85;;;;;;;30.04;24.23;100703.66;4807494;29;20054;-87
2022/08/24 14:43:10;;;;;;;29.55;4.40;;;;;;;29.67;26.63;100671.28;4829226;29;20113;-88
2022/08/24 14:46:15;;;;;;;26.02;4.53;;;;;;;29.52;27.17;100688.63;4845354;29;20080;-87
2022/08/24 14:49:18;;;;;;;39.30;4.93;;;;;;;29.52;27.30;100694.25;4857298;29;20034;-86
2022/08/24 14:52:18;;;;;;;14.88;4.55;;;;;;;29.52;25.88;100702.72;4863440;29;20064;-90
2022/08/24 14:55:06;;;;;;;21.88;4.90;;;;;;;29.54;26.32;100695.47;4881479;29;20087;-88
2022/08/24 14:57:46;;;;;;;19.02;4.40;;;;;;;29.65;25.61;100695.44;4847877;29;20055;-89
2022/08/24 15:00:18;;;;;;;24.70;5.90;;;;;;;29.65;26.78;100679.31;4885342;29;20173;-89
2022/08/24 15:03:32;;;;;;;26.90;5.25;;;;;;;29.85;26.17;100688.06;4866641;29;20045;-93
2022/08/24 15:06:36;;;;;;;17.88;5.60;;;;;;;29.94;26.63;100690.44;4872633;29;20029;-96
2022/08/24 15:16:09;;;;;;;52.70;24.05;;;;;;;29.92;28.85;100685.19;4882389;29;20036;-89
2022/08/24 15:18:50;;;;;;;158.85;78.53;;;;;;;29.70;29.78;100667.63;4872057;29;20070;-88
2022/08/24 15:21:33;;;;;;;141.77;69.15;;;;;;;29.85;27.78;100690.88;4890525;29;20044;-88
2022/08/24 15:24:25;;;;;;;68.32;23.90;;;;;;;29.72;28.85;100672.84;4871730;29;20069;-87
2022/08/24 15:27:28;;;;;;;50.28;18.23;;;;;;;29.75;29.05;100691.75;4885613;29;20079;-87
2022/08/24 15:30:00;;;;;;;91.88;31.17;;;;;;;29.66;28.49;100682.94;4881421;29;20331;-87
2022/08/24 15:32:43;;;;;;;57.13;22.63;;;;;;;29.48;28.55;100672.53;4886015;29;20048;-87
2022/08/24 15:35:27;;;;;;;62.97;22.60;;;;;;;29.03;29.34;100632.06;4870824;29;20562;-88
2022/08/24 15:37:53;;;;;;;48.22;19.20;;;;;;;28.98;30.07;100647.34;4881717;29;20529;-87
2022/08/24 15:40:29;;;;;;;63.53;13.43;;;;;;;29.00;29.81;100666.66;4880830;29;20056;-88
2022/08/24 15:43:12;;;;;;;27.02;9.23;;;;;;;28.65;29.83;100634.53;4898442;29;20040;-88
2022/08/24 15:45:50;;;;;;;48.30;8.10;;;;;;;28.77;29.56;100683.97;4865234;29;20518;-87
2022/08/24 15:48:24;;;;;;;37.03;9.02;;;;;;;28.55;29.51;100661.50;4846049;29;20040;-88
2022/08/24 15:50:52;;;;;;;46.25;9.70;;;;;;;28.59;29.36;100677.56;4846122;29;20059;-88
2022/08/24 15:53:46;;;;;;;50.70;9.13;;;;;;;28.44;29.30;100685.19;4854317;29;20036;-88
2022/08/24 15:56:28;;;;;;;56.70;12.88;;;;;;;28.36;29.01;100689.19;4894793;29;20048;-87
2022/08/24 15:59:09;;;;;;;62.78;17.40;;;;;;;28.16;29.82;100661.47;4883762;29;20092;-88
2022/08/24 16:04:48;;;;;;;53.90;20.23;;;;;;;27.80;29.49;100641.72;4890182;29;20063;-89
2022/08/24 16:07:58;;;;;;;78.43;20.80;;;;;;;27.96;29.17;100688.34;4854188;29;20051;-90
2022/08/24 16:10:55;;;;;;;65.05;18.05;;;;;;;27.82;29.27;100672.25;4866448;29;20144;-89
2022/08/24 16:13:28;;;;;;;45.78;17.73;;;;;;;27.26;29.40;100601.41;4862947;29;20128;-90
2022/08/24 16:16:10;;;;;;;41.63;14.30;;;;;;;27.44;30.02;100649.22;4853079;29;20044;-92
2022/08/24 16:18:52;;;;;;;93.05;16.48;;;;;;;27.63;30.25;100688.22;4864436;29;20076;-95
2022/08/24 16:21:44;;;;;;;56.58;13.25;;;;;;;27.13;30.49;100629.03;4845705;29;20037;-91
2022/08/24 16:24:19;;;;;;;47.88;10.95;;;;;;;27.42;30.51;100693.75;4848025;29;20438;-90
2022/08/24 16:26:46;;;;;;;35.30;9.33;;;;;;;27.35;30.38;100696.50;4849237;29;20530;-92
2022/08/24 16:29:59;;;;;;;34.75;7.90;;;;;;;27.25;31.07;100692.47;4847495;29;20795;-93
2022/08/24 16:32:30;;;;;;;36.95;9.02;;;;;;;26.82;30.88;100638.88;4842833;29;20052;-91
2022/08/24 16:35:06;;;;;;;36.55;8.95;;;;;;;27.10;30.91;100693.56;4855134;29;20044;-93
2022/08/24 16:37:34;;;;;;;33.63;8.17;;;;;;;26.64;30.96;100637.94;4852349;29;20478;-92
2022/08/24 16:40:30;;;;;;;54.35;8.48;;;;;;;26.96;30.99;100696.28;4867577;29;20041;-92
2022/08/24 16:42:56;;;;;;;29.27;7.28;;;;;;;26.62;30.97;100659.97;4853178;29;20040;-92
2022/08/24 16:45:23;;;;;;;24.00;7.97;;;;;;;26.61;30.81;100661.97;4860653;29;20099;-92
2022/08/24 16:47:49;;;;;;;28.08;8.88;;;;;;;26.23;31.17;100624.78;4864928;29;20059;-95
2022/08/24 16:50:18;;;;;;;31.75;8.52;;;;;;;26.07;31.39;100604.63;4851948;29;20598;-92
2022/08/24 16:52:48;;;;;;;26.73;6.60;;;;;;;26.42;31.38;100671.41;4867430;29;20079;-92
2022/08/24 16:55:39;;;;;;;43.75;8.82;;;;;;;26.52;31.80;100699.94;4851800;29;20044;-91
2022/08/24 16:58:06;;;;;;;35.85;8.25;;;;;;;25.85;31.81;100602.81;4865974;29;20064;-90
2022/08/24 17:00:57;;;;;;;39.80;9.93;;;;;;;26.46;32.15;100705.91;4864838;29;20059;-91
2022/08/24 17:03:32;;;;;;;47.30;12.68;;;;;;;26.20;32.26;100675.22;4854335;29;20051;-91
2022/08/24 17:05:59;;;;;;;57.50;13.32;;;;;;;26.13;32.28;100675.16;4867521;29;20134;-91
2022/08/24 17:08:27;;;;;;;61.58;12.88;;;;;;;26.08;32.33;100675.50;4865971;29;20048;-90
2022/08/24 17:10:55;;;;;;;48.65;11.48;;;;;;;26.01;32.32;100682.63;4880901;29;20519;-88
2022/08/24 17:13:22;;;;;;;52.90;11.50;;;;;;;25.92;32.80;100670.94;4880472;29;20092;-89
2022/08/24 17:15:48;;;;;;;35.55;12.25;;;;;;;26.10;32.97;100704.75;4876585;29;20183;-89
2022/08/24 17:18:18;;;;;;;46.35;10.90;;;;;;;25.64;32.66;100648.19;4866043;29;20045;-89
2022/08/24 17:21:19;;;;;;;36.55;10.68;;;;;;;25.82;32.60;100688.44;4869769;29;20426;-90
2022/08/24 17:23:46;;;;;;;46.97;10.48;;;;;;;25.80;34.15;100696.44;4867824;29;20414;-89
2022/08/24 17:26:14;;;;;;;53.83;11.25;;;;;;;25.80;34.08;100713.25;4884822;29;20044;-89
2022/08/24 17:28:46;;;;;;;44.03;14.75;;;;;;;25.37;34.18;100667.88;4854924;29;20049;-90
2022/08/24 17:31:13;;;;;;;40.03;13.77;;;;;;;25.68;33.50;100717.06;4870212;29;20132;-88
2022/08/24 17:33:40;;;;;;;37.38;10.25;;;;;;;25.42;33.66;100684.34;4883258;29;20045;-89
2022/08/24 17:36:08;;;;;;;28.55;10.52;;;;;;;25.26;34.68;100652.94;4854375;29;20047;-90
2022/08/24 17:38:56;;;;;;;32.15;9.05;;;;;;;25.52;34.16;100714.47;4867924;29;20041;-89
2022/08/24 17:41:25;;;;;;;50.60;10.82;;;;;;;25.05;35.08;100659.84;4848567;29;20077;-88
2022/08/24 17:43:52;;;;;;;49.95;11.23;;;;;;;24.97;35.90;100646.94;4825291;29;20109;-88
2022/08/24 17:46:20;;;;;;;42.15;12.23;;;;;;;25.03;36.89;100665.00;4841020;29;20057;-88
2022/08/24 17:48:48;;;;;;;42.15;11.23;;;;;;;24.85;37.83;100653.56;4836081;29;20618;-89
2022/08/24 17:51:16;;;;;;;41.15;10.60;;;;;;;24.75;36.13;100648.63;4821763;29;20442;-89
2022/08/24 17:53:44;;;;;;;26.38;8.07;;;;;;;24.98;35.49;100698.91;4839056;29;20083;-88
2022/08/24 17:56:13;;;;;;;26.42;9.35;;;;;;;24.60;37.52;100641.19;4854599;29;20049;-88
2022/08/24 18:04:43;;;;;;;33.65;10.07;;;;;;;24.40;38.14;100629.25;4836221;29;20053;-89
2022/08/24 18:07:53;;;;;;;30.55;8.70;;;;;;;24.57;36.05;100659.53;4806723;29;20046;-90
2022/08/24 18:10:23;;;;;;;30.52;9.80;;;;;;;24.49;40.27;100663.38;4786189;29;20089;-89
2022/08/24 18:12:59;;;;;;;31.83;9.45;;;;;;;24.65;39.13;100693.19;4800085;29;20150;-89
2022/08/24 18:15:31;;;;;;;26.38;9.10;;;;;;;24.17;39.09;100640.44;4788091;29;20071;-89
2022/08/24 18:18:00;;;;;;;21.23;10.07;;;;;;;24.34;40.39;100678.28;4792371;29;20069;-90
2022/08/24 18:20:52;;;;;;;37.30;9.95;;;;;;;24.50;37.34;100718.13;4829242;29;20050;-90
2022/08/24 18:23:22;;;;;;;40.03;11.70;;;;;;;23.89;37.23;100622.03;4844055;29;20041;-89
2022/08/24 18:25:52;;;;;;;46.65;19.30;;;;;;;24.09;39.17;100661.88;4845594;29;20045;-91
2022/08/24 18:28:41;;;;;;;40.90;18.95;;;;;;;23.92;39.15;100652.00;4829957;29;20204;-90
2022/08/24 18:31:22;;;;;;;49.53;22.13;;;;;;;24.09;39.75;100673.06;4844688;29;20082;-90
2022/08/24 18:33:50;;;;;;;28.23;15.50;;;;;;;23.96;39.14;100660.44;4830350;29;20086;-91
2022/08/24 18:36:43;;;;;;;53.55;25.08;;;;;;;24.27;41.98;100714.47;4859556;29;20042;-89
2022/08/24 18:39:09;;;;;;;30.83;11.63;;;;;;;23.91;38.51;100667.16;4845042;29;20046;-91
2022/08/24 18:41:38;;;;;;;56.92;29.88;;;;;;;23.44;44.10;100605.97;4829605;29;20041;-94
2022/08/24 18:44:08;;;;;;;52.03;20.63;;;;;;;23.72;41.87;100674.75;4838377;29;20049;-91
2022/08/24 18:46:36;;;;;;;52.85;20.60;;;;;;;23.32;44.40;100629.28;4827389;29;20052;-89
2022/08/24 18:49:10;;;;;;;35.83;13.02;;;;;;;23.40;41.53;100642.19;4860465;29;20040;-92
2022/08/24 18:51:42;;;;;;;35.90;12.38;;;;;;;23.58;42.64;100670.47;4854818;29;20292;-92
2022/08/24 18:54:19;;;;;;;35.03;9.50;;;;;;;23.46;38.94;100639.91;4846270;29;20044;-94
2022/08/24 18:57:50;;;;;;;28.75;10.23;;;;;;;23.82;40.17;100705.69;4857720;29;20045;-93
2022/08/24 19:00:18;;;;;;;24.17;9.48;;;;;;;23.57;39.99;100671.63;4887655;29;20049;-90
2022/08/24 19:02:46;;;;;;;26.75;10.10;;;;;;;23.35;40.46;100658.44;4852830;29;20040;-92
2022/08/24 19:05:18;;;;;;;34.47;10.23;;;;;;;23.09;40.99;100612.47;4855117;29;20036;-92
2022/08/24 19:08:09;;;;;;;40.67;11.77;;;;;;;23.70;42.76;100717.00;4888630;29;20101;-89
2022/08/24 19:10:36;;;;;;;30.63;11.50;;;;;;;23.52;43.78;100687.88;4865860;29;20044;-90
2022/08/24 19:13:17;;;;;;;32.58;9.82;;;;;;;23.63;41.56;100714.84;4859238;29;20040;-88
2022/08/24 19:15:51;;;;;;;30.38;10.23;;;;;;;23.43;40.31;100685.31;4865686;29;20064;-91
2022/08/24 19:18:25;;;;;;;32.75;9.05;;;;;;;23.15;40.22;100635.31;4844134;29;20052;-89
2022/08/24 19:20:56;;;;;;;36.55;8.75;;;;;;;23.56;40.42;100699.94;4857081;29;20495;-90
2022/08/24 19:23:50;;;;;;;33.28;9.13;;;;;;;23.58;42.63;100714.34;4810455;29;20050;-91
2022/08/24 19:26:19;;;;;;;38.75;9.45;;;;;;;23.52;41.32;100705.44;4831994;29;20050;-94
2022/08/24 19:28:53;;;;;;;27.80;8.52;;;;;;;23.18;39.97;100648.53;4800192;29;20050;-94
2022/08/24 19:31:31;;;;;;;43.95;10.57;;;;;;;22.93;42.35;100614.50;4811155;29;20050;-94
2022/08/24 19:34:18;;;;;;;23.50;8.52;;;;;;;22.95;40.01;100621.34;4786857;29;20047;-94
2022/08/24 19:36:44;;;;;;;37.60;10.80;;;;;;;22.91;45.20;100614.00;4795436;29;20054;-93
2022/08/24 19:39:22;;;;;;;27.77;10.00;;;;;;;23.14;42.42;100655.97;4796993;29;20070;-92
2022/08/24 19:41:52;;;;;;;35.53;9.80;;;;;;;23.05;44.92;100653.41;4803545;29;20093;-96
2022/08/24 19:47:13;;;;;;;27.48;10.88;;;;;;;22.70;44.95;100611.56;4868682;29;20037;-92
2022/08/24 19:49:40;;;;;;;26.30;11.02;;;;;;;22.55;45.85;100598.47;4860887;29;20270;-91
2022/08/24 19:52:09;;;;;;;;;;;;;;;23.19;47.44;100723.47;4861597;29;20059;-92
2022/08/24 19:54:41;;;;;;;30.70;11.75;;;;;;;22.74;48.50;100666.22;4855217;29;19924;-93
2022/08/24 19:57:40;;;;;;;38.85;13.38;;;;;;;22.96;49.21;100717.75;4843923;29;20508;-91
2022/08/24 20:00:17;;;;;;;39.35;11.45;;;;;;;22.88;49.40;100726.28;4861918;29;20583;-91
2022/08/24 20:03:44;;;;;;;27.13;10.98;;;;;;;22.80;47.36;100719.72;4820801;29;20119;-93
2022/08/24 20:06:14;;;;;;;38.28;10.60;;;;;;;22.12;46.29;100614.94;4803151;29;20047;-94
2022/08/24 20:09:07;;;;;;;30.40;10.80;;;;;;;22.26;45.00;100647.94;4808266;29;20031;-93
2022/08/24 20:11:39;;;;;;;44.15;10.80;;;;;;;22.11;46.37;100627.22;4809371;29;20122;-94
2022/08/24 20:14:15;;;;;;;35.70;10.82;;;;;;;22.61;47.80;100714.88;4808621;29;20053;-93
2022/08/24 20:17:31;;;;;;;32.15;11.43;;;;;;;22.42;46.45;100698.91;4826630;29;20114;-94
2022/08/24 20:20:09;;;;;;;38.70;11.27;;;;;;;22.34;45.31;100680.38;4816607;29;20074;-93
2022/08/24 20:22:40;;;;;;;32.85;12.77;;;;;;;22.62;47.83;100732.44;4803338;29;20046;-91
2022/08/24 20:25:09;;;;;;;31.77;11.85;;;;;;;22.22;49.40;100678.50;4785837;29;20184;-93
2022/08/24 20:27:41;;;;;;;24.73;10.80;;;;;;;22.27;47.67;100699.69;4814334;29;20059;-92